Time;durP1;ratioP1;P1;durP2;ratioP2;P2;SDS_P1;SDS_P2;PMS_P1;PMS_P2;Temp;Humidity;BMP_temperature;BMP_pressure;BME280_temperature;BME280_humidity;BME280_pressure;Samples;Min_cycle;Max_cycle;Signal;HPM_P1;HPM_P2
2022/03/09 00:02:24;;;;;;;17.93;11.13;;;;;;;3.06;48.82;102113.75;4980709;28;20034;-68
2022/03/09 00:04:49;;;;;;;18.43;11.07;;;;;;;3.03;48.90;102111.31;4982146;28;20354;-68
2022/03/09 00:07:14;;;;;;;18.07;11.37;;;;;;;3.07;48.88;102122.47;4984406;28;20103;-68
2022/03/09 00:09:40;;;;;;;18.30;11.67;;;;;;;3.08;48.90;102124.16;4980656;28;20052;-68
2022/03/09 00:12:06;;;;;;;17.90;11.43;;;;;;;3.07;48.80;102125.94;4980608;28;20034;-68
2022/03/09 00:14:31;;;;;;;16.53;10.23;;;;;;;3.07;48.90;102125.09;4985210;28;20035;-67
2022/03/09 00:16:56;;;;;;;19.53;11.70;;;;;;;3.06;48.87;102126.03;4980975;28;20061;-69
2022/03/09 00:19:21;;;;;;;21.07;11.17;;;;;;;3.07;49.06;102125.94;4984552;28;20030;-67
2022/03/09 00:21:47;;;;;;;19.50;10.83;;;;;;;3.02;49.06;102124.50;4981011;28;20050;-68
2022/03/09 00:24:14;;;;;;;15.77;10.43;;;;;;;3.08;49.00;102132.88;4985284;28;20038;-67
2022/03/09 00:26:40;;;;;;;16.57;9.97;;;;;;;3.04;48.85;102123.50;4981064;28;20043;-68
2022/03/09 00:29:05;;;;;;;16.70;9.97;;;;;;;3.07;48.91;102130.34;4975045;28;20033;-67
2022/03/09 00:31:31;;;;;;;15.33;10.27;;;;;;;3.07;48.83;102128.56;4979269;28;20101;-68
2022/03/09 00:33:56;;;;;;;18.53;10.60;;;;;;;2.99;48.77;102117.66;4984874;28;20513;-68
2022/03/09 00:36:21;;;;;;;13.87;9.80;;;;;;;3.04;48.83;102133.13;4984843;28;20081;-68
2022/03/09 00:38:46;;;;;;;15.83;9.67;;;;;;;2.92;48.70;102108.47;4987568;28;20077;-68
2022/03/09 00:41:13;;;;;;;15.80;9.50;;;;;;;3.04;48.73;102123.50;4982985;28;20053;-67
2022/03/09 00:43:38;;;;;;;15.67;10.10;;;;;;;3.03;48.77;102124.44;4986463;28;20062;-67
2022/03/09 00:46:03;;;;;;;15.67;9.77;;;;;;;2.97;48.83;102119.53;4987261;28;20515;-68
2022/03/09 00:48:29;;;;;;;14.87;9.30;;;;;;;3.01;48.76;102122.81;4983643;28;20034;-68
2022/03/09 00:50:54;;;;;;;14.57;9.30;;;;;;;2.92;48.78;102108.47;4983204;28;20045;-67
2022/03/09 00:53:19;;;;;;;19.13;10.13;;;;;;;2.94;48.88;102109.22;4982291;28;20183;-68
2022/03/09 00:55:45;;;;;;;15.83;9.83;;;;;;;2.94;48.99;102119.72;4985291;28;20529;-68
2022/03/09 00:58:10;;;;;;;15.50;9.77;;;;;;;2.95;48.98;102128.44;4967070;28;20093;-68
2022/03/09 01:00:35;;;;;;;15.53;9.43;;;;;;;2.93;48.96;102125.91;4982537;28;20042;-68
2022/03/09 01:03:00;;;;;;;16.47;9.33;;;;;;;2.93;48.88;102130.31;4978170;28;20042;-67
2022/03/09 01:05:26;;;;;;;14.90;9.37;;;;;;;2.88;49.03;102119.22;4981286;28;20509;-68
2022/03/09 01:07:51;;;;;;;15.53;9.90;;;;;;;2.88;49.33;102135.81;4982537;28;20486;-68
2022/03/09 01:10:16;;;;;;;16.30;10.00;;;;;;;2.88;49.12;102127.94;4981995;28;20038;-67
2022/03/09 01:12:42;;;;;;;15.97;9.80;;;;;;;2.84;49.11;102129.03;4983818;28;20034;-68
2022/03/09 01:15:07;;;;;;;18.17;10.03;;;;;;;2.86;49.09;102123.72;4979545;28;20035;-68
2022/03/09 01:17:33;;;;;;;14.90;9.80;;;;;;;2.85;49.10;102135.13;4978698;28;20035;-68
2022/03/09 01:19:59;;;;;;;14.97;10.40;;;;;;;2.82;49.17;102128.28;4979589;28;20030;-67
2022/03/09 01:22:24;;;;;;;18.13;10.33;;;;;;;2.78;49.31;102122.38;4990073;28;20026;-68
2022/03/09 01:24:49;;;;;;;19.87;10.17;;;;;;;2.78;48.79;102122.38;4983025;28;20038;-67
2022/03/09 01:27:15;;;;;;;17.37;10.23;;;;;;;2.71;49.33;102121.06;4985589;28;20398;-68
2022/03/09 01:29:40;;;;;;;17.83;10.43;;;;;;;2.72;49.39;102127.16;4983773;28;20087;-68
2022/03/09 01:32:06;;;;;;;16.40;10.00;;;;;;;2.69;49.42;102116.84;4983610;28;20053;-68
2022/03/09 01:34:31;;;;;;;15.23;9.33;;;;;;;2.65;49.38;102120.56;4981867;28;20082;-68
2022/03/09 01:36:57;;;;;;;15.53;9.97;;;;;;;2.67;49.48;102119.53;4978793;28;20026;-67
2022/03/09 01:39:22;;;;;;;15.50;10.47;;;;;;;2.64;49.59;102114.47;4983039;28;20525;-68
2022/03/09 01:41:48;;;;;;;20.50;10.00;;;;;;;2.63;49.57;102118.03;4977661;28;20045;-68
2022/03/09 01:44:16;;;;;;;16.47;10.23;;;;;;;2.62;49.56;102126.00;4983775;28;20038;-67
2022/03/09 01:46:42;;;;;;;16.53;10.10;;;;;;;2.60;49.64;102115.59;4979783;28;20094;-68
2022/03/09 01:49:09;;;;;;;17.00;10.40;;;;;;;2.59;49.72;102121.75;4984173;28;20030;-68
2022/03/09 01:51:38;;;;;;;17.20;10.27;;;;;;;2.51;49.85;102118.72;4978794;28;20375;-68
2022/03/09 01:54:04;;;;;;;19.92;11.18;;;;;;;2.50;49.89;102117.03;4983919;28;20030;-68
2022/03/09 01:56:30;;;;;;;19.87;11.20;;;;;;;2.50;49.98;102117.03;4985001;28;20033;-68
2022/03/09 01:58:55;;;;;;;19.73;10.77;;;;;;;2.49;49.93;102115.34;4982443;28;20397;-68
2022/03/09 02:01:21;;;;;;;17.93;10.67;;;;;;;2.46;50.14;102107.66;4983174;28;20077;-69
2022/03/09 02:03:47;;;;;;;19.97;11.77;;;;;;;2.44;50.18;102099.03;4978730;28;20133;-68
2022/03/09 02:06:12;;;;;;;16.87;11.30;;;;;;;2.42;50.20;102099.13;4984110;28;20798;-69
2022/03/09 02:11:22;;;;;;;20.77;11.00;;;;;;;2.33;50.24;102098.81;4983762;28;20096;-68
2022/03/09 02:13:48;;;;;;;18.87;10.93;;;;;;;2.37;50.22;102114.28;4983748;28;20035;-68
2022/03/09 02:16:14;;;;;;;21.20;11.27;;;;;;;2.34;50.20;102117.06;4981672;28;20038;-68
2022/03/09 02:18:40;;;;;;;20.70;11.77;;;;;;;2.33;50.51;102120.63;4982799;28;20026;-69
2022/03/09 02:21:08;;;;;;;21.17;10.80;;;;;;;2.29;50.52;102116.44;4988737;28;20034;-68
2022/03/09 02:23:34;;;;;;;17.00;10.87;;;;;;;2.30;50.51;102114.69;4976279;28;20089;-68
2022/03/09 02:25:59;;;;;;;19.13;11.43;;;;;;;2.24;50.57;102102.75;4988629;28;20026;-69
2022/03/09 02:28:25;;;;;;;18.30;10.93;;;;;;;2.25;50.74;102117.56;4975953;28;20026;-68
2022/03/09 02:30:57;;;;;;;21.43;10.93;;;;;;;2.26;50.77;102110.53;4979741;28;20470;-68
2022/03/09 02:33:22;;;;;;;21.80;11.10;;;;;;;2.24;50.81;102110.63;4979973;28;20401;-68
2022/03/09 02:35:48;;;;;;;21.70;11.70;;;;;;;2.20;50.78;102101.25;4983799;28;20031;-68
2022/03/09 02:38:13;;;;;;;19.40;11.10;;;;;;;2.18;50.96;102103.97;4978604;28;20113;-68
2022/03/09 02:40:38;;;;;;;19.53;10.97;;;;;;;2.12;50.77;102090.38;4981846;28;20041;-68
2022/03/09 02:43:04;;;;;;;19.27;11.67;;;;;;;2.12;51.15;102096.44;4984973;28;20025;-68
2022/03/09 02:45:29;;;;;;;17.33;11.63;;;;;;;2.06;51.26;102090.72;4978855;28;20034;-68
2022/03/09 02:47:56;;;;;;;18.53;11.67;;;;;;;2.03;51.44;102088.25;4980275;28;20030;-68
2022/03/09 02:50:21;;;;;;;18.20;10.80;;;;;;;2.00;51.44;102083.16;4982763;28;20037;-68
2022/03/09 02:52:47;;;;;;;19.27;10.73;;;;;;;1.98;51.27;102083.25;4983325;28;20504;-68
2022/03/09 02:55:12;;;;;;;16.93;11.30;;;;;;;1.93;51.46;102080.03;4976108;28;20481;-69
2022/03/09 02:57:39;;;;;;;16.60;10.37;;;;;;;1.95;51.58;102093.91;4972969;28;20035;-69
2022/03/09 03:00:07;;;;;;;18.80;11.27;;;;;;;1.93;51.63;102092.28;4983492;28;20481;-68
2022/03/09 03:02:33;;;;;;;15.70;10.23;;;;;;;1.89;51.81;102089.00;4979081;28;20034;-68
2022/03/09 03:04:58;;;;;;;18.77;11.03;;;;;;;1.93;51.75;102100.16;4978600;28;20407;-68
2022/03/09 03:07:24;;;;;;;17.60;10.93;;;;;;;1.92;51.94;102098.47;4974805;28;20104;-68
2022/03/09 03:09:49;;;;;;;18.40;11.00;;;;;;;1.74;51.84;102082.84;4980573;28;20085;-68
2022/03/09 03:12:14;;;;;;;19.83;11.33;;;;;;;1.81;52.08;102096.44;4984603;28;20038;-68
2022/03/09 03:14:39;;;;;;;16.87;10.77;;;;;;;1.84;52.02;102091.03;4980667;28;20035;-68
2022/03/09 03:17:05;;;;;;;17.20;11.10;;;;;;;1.81;52.33;102099.91;4984770;28;20475;-68
2022/03/09 03:19:30;;;;;;;17.40;11.10;;;;;;;1.78;52.29;102097.47;4982405;28;20065;-68
2022/03/09 03:21:55;;;;;;;20.13;11.80;;;;;;;1.72;52.36;102092.53;4979064;28;20041;-68
2022/03/09 03:24:20;;;;;;;17.40;11.03;;;;;;;1.73;52.32;102093.38;4980496;28;20545;-68
2022/03/09 03:26:46;;;;;;;22.83;10.97;;;;;;;1.69;52.30;102097.94;4986863;28;20017;-68
2022/03/09 03:29:11;;;;;;;19.73;11.23;;;;;;;1.66;52.41;102107.72;4975542;28;20030;-68
2022/03/09 03:31:36;;;;;;;18.40;11.47;;;;;;;1.60;52.70;102098.44;4979635;28;20393;-68
2022/03/09 03:34:02;;;;;;;23.57;11.80;;;;;;;1.56;52.82;102091.69;4981231;28;20026;-68
2022/03/09 03:36:27;;;;;;;20.17;10.80;;;;;;;1.52;52.64;102079.69;4979310;28;20026;-68
2022/03/09 03:38:53;;;;;;;18.73;10.47;;;;;;;1.52;52.72;102085.75;4975356;28;20120;-69
2022/03/09 03:41:18;;;;;;;23.77;11.43;;;;;;;1.54;52.75;102088.28;4963517;28;20043;-68
2022/03/09 03:43:43;;;;;;;19.57;10.90;;;;;;;1.52;52.91;102085.75;4985159;28;20494;-68
2022/03/09 03:46:09;;;;;;;20.33;11.50;;;;;;;1.55;52.78;102090.84;4975487;28;20018;-68
2022/03/09 03:48:34;;;;;;;19.43;11.47;;;;;;;1.54;52.82;102097.00;4973853;28;20479;-68
2022/03/09 03:50:59;;;;;;;16.63;10.43;;;;;;;1.53;52.89;102092.69;4973416;28;20030;-68
2022/03/09 03:53:24;;;;;;;23.63;11.53;;;;;;;1.51;52.94;102086.69;4982036;28;20031;-68
2022/03/09 03:55:50;;;;;;;20.50;11.50;;;;;;;1.50;53.00;102089.38;4980505;28;20506;-68
2022/03/09 03:58:15;;;;;;;21.87;11.37;;;;;;;1.45;52.94;102080.94;4980425;28;20030;-69
2022/03/09 04:00:40;;;;;;;18.57;10.63;;;;;;;1.45;53.01;102086.19;4979736;28;20117;-68
2022/03/09 04:03:06;;;;;;;20.03;11.00;;;;;;;1.42;53.27;102079.31;4975503;28;20074;-68
2022/03/09 04:05:31;;;;;;;20.47;11.40;;;;;;;1.32;53.15;102091.19;4977395;28;20062;-68
2022/03/09 04:07:56;;;;;;;20.50;11.37;;;;;;;1.28;53.44;102096.66;4963759;28;20030;-68
2022/03/09 04:10:22;;;;;;;19.53;10.80;;;;;;;1.28;53.51;102094.91;4971613;28;20098;-68
2022/03/09 04:12:47;;;;;;;23.13;12.30;;;;;;;1.21;53.75;102096.16;4974079;28;20030;-68
2022/03/09 04:15:13;;;;;;;20.70;11.03;;;;;;;1.21;53.98;102096.16;4981923;28;20846;-68
2022/03/09 04:17:43;;;;;;;18.03;11.23;;;;;;;1.17;53.97;102100.69;4976438;28;20038;-68
2022/03/09 04:20:10;;;;;;;17.50;10.90;;;;;;;1.16;54.06;102098.16;4979208;28;20033;-68
2022/03/09 04:22:35;;;;;;;19.07;11.40;;;;;;;1.10;53.99;102093.22;4990071;28;20110;-68
2022/03/09 04:25:02;;;;;;;20.63;11.07;;;;;;;1.17;54.02;102099.84;4984540;28;20580;-68
2022/03/09 04:27:28;;;;;;;20.93;10.97;;;;;;;1.15;54.07;102089.44;4980755;28;20529;-68
2022/03/09 04:29:53;;;;;;;19.83;11.13;;;;;;;1.17;54.00;102089.38;4989243;28;20079;-69
2022/03/09 04:32:18;;;;;;;25.40;11.20;;;;;;;1.16;53.91;102092.94;4979789;28;20035;-68
2022/03/09 04:34:43;;;;;;;16.63;11.33;;;;;;;1.17;54.11;102089.38;4988986;28;20073;-68
2022/03/09 04:37:09;;;;;;;19.20;11.70;;;;;;;1.15;53.89;102088.59;4979171;28;20383;-68
2022/03/09 04:39:34;;;;;;;19.03;11.47;;;;;;;1.15;53.88;102085.97;4980919;28;20084;-68
2022/03/09 04:41:59;;;;;;;19.27;11.33;;;;;;;1.09;53.54;102079.28;4988786;28;20493;-68
2022/03/09 04:44:24;;;;;;;20.57;11.17;;;;;;;1.03;53.81;102076.16;4978505;28;20037;-68
2022/03/09 04:46:50;;;;;;;19.10;10.70;;;;;;;1.08;53.97;102089.84;4990948;28;20018;-68
2022/03/09 04:49:15;;;;;;;20.77;11.17;;;;;;;1.06;53.91;102089.91;4985185;28;20409;-68
2022/03/09 04:51:41;;;;;;;21.23;11.33;;;;;;;1.05;53.93;102083.00;4983421;28;20033;-69
2022/03/09 04:54:06;;;;;;;20.57;11.43;;;;;;;0.93;54.05;102068.78;4982768;28;20132;-68
2022/03/09 04:56:31;;;;;;;18.93;10.50;;;;;;;0.98;54.00;102080.78;4983787;28;20069;-68
2022/03/09 04:58:56;;;;;;;19.53;10.83;;;;;;;0.98;54.10;102088.63;4977672;28;20033;-68
2022/03/09 05:01:22;;;;;;;17.00;10.47;;;;;;;0.98;54.15;102083.41;4982968;28;20521;-68
2022/03/09 05:03:47;;;;;;;18.43;10.90;;;;;;;0.97;54.25;102086.94;4981218;28;20050;-68
2022/03/09 05:06:13;;;;;;;21.50;10.83;;;;;;;0.95;54.23;102073.94;4982440;28;20030;-68
2022/03/09 05:08:38;;;;;;;15.53;10.37;;;;;;;0.95;54.30;102083.56;4985024;28;20018;-68
2022/03/09 05:11:04;;;;;;;20.00;10.47;;;;;;;0.91;54.39;102078.50;4970733;28;20026;-68
2022/03/09 05:13:29;;;;;;;18.90;10.90;;;;;;;0.92;54.34;102085.41;4979572;28;20457;-69
2022/03/09 05:15:54;;;;;;;20.80;11.33;;;;;;;0.88;54.25;102081.25;4983441;28;20405;-68
2022/03/09 05:18:19;;;;;;;19.40;10.73;;;;;;;0.85;54.32;102078.78;4981629;28;20060;-69
2022/03/09 05:20:46;;;;;;;21.67;11.47;;;;;;;0.84;54.43;102086.69;4984856;28;20031;-68
2022/03/09 05:23:11;;;;;;;22.03;11.00;;;;;;;0.85;54.48;102088.38;4983423;28;20478;-69
2022/03/09 05:25:36;;;;;;;17.53;10.83;;;;;;;0.86;54.51;102087.47;4983973;28;20033;-68
2022/03/09 05:28:02;;;;;;;16.63;10.20;;;;;;;0.84;54.49;102084.09;4973751;28;20023;-68
2022/03/09 05:30:28;;;;;;;17.00;10.80;;;;;;;0.75;54.59;102084.56;4979462;28;20081;-68
2022/03/09 05:32:53;;;;;;;23.47;11.37;;;;;;;0.76;54.58;102089.72;4976879;28;20113;-68
2022/03/09 05:35:19;;;;;;;18.00;11.13;;;;;;;0.74;54.59;102088.94;4984184;28;20113;-68
2022/03/09 05:37:44;;;;;;;21.90;11.10;;;;;;;0.71;54.77;102094.31;4984314;28;20027;-68
2022/03/09 05:40:11;;;;;;;18.07;11.60;;;;;;;0.66;54.86;102101.56;4987064;28;20033;-68
2022/03/09 05:42:37;;;;;;;18.50;11.23;;;;;;;0.63;55.03;102103.47;4983037;28;20129;-68
2022/03/09 05:45:03;;;;;;;19.10;10.80;;;;;;;0.61;55.07;102106.16;4985094;28;20537;-68
2022/03/09 05:47:29;;;;;;;19.47;11.30;;;;;;;0.53;55.12;102103.91;4977262;28;20429;-68
2022/03/09 05:49:54;;;;;;;21.07;10.87;;;;;;;0.56;55.23;102111.59;4986262;28;20048;-68
2022/03/09 05:52:19;;;;;;;17.37;10.47;;;;;;;0.54;55.12;102109.97;4982645;28;20035;-68
2022/03/09 05:54:45;;;;;;;18.77;10.70;;;;;;;0.42;55.20;102089.69;4973222;28;20030;-69
2022/03/09 05:57:12;;;;;;;18.03;10.67;;;;;;;0.49;55.20;102115.44;4984004;28;20476;-68
2022/03/09 05:59:37;;;;;;;20.10;11.23;;;;;;;0.53;55.19;102129.19;4982347;28;20477;-68
2022/03/09 06:02:02;;;;;;;20.80;11.03;;;;;;;0.53;55.26;102130.03;4979813;28;20109;-68
2022/03/09 06:04:28;;;;;;;21.63;11.13;;;;;;;0.52;55.29;102133.56;4979477;28;20026;-67
2022/03/09 06:06:53;;;;;;;19.67;10.60;;;;;;;0.52;55.29;102125.72;4976998;28;20114;-67
2022/03/09 06:09:18;;;;;;;25.90;11.37;;;;;;;0.52;55.29;102127.50;4976430;28;20046;-68
2022/03/09 06:11:43;;;;;;;21.10;11.03;;;;;;;0.55;55.28;102132.59;4983779;28;20076;-69
2022/03/09 06:14:09;;;;;;;23.83;10.83;;;;;;;0.54;55.44;102133.50;4978075;28;20114;-68
2022/03/09 06:16:35;;;;;;;18.53;11.50;;;;;;;0.53;55.72;102135.28;4960440;28;20030;-69
2022/03/09 06:19:00;;;;;;;20.63;11.40;;;;;;;0.52;55.57;102138.81;4986893;28;20493;-68
2022/03/09 06:21:25;;;;;;;18.97;11.23;;;;;;;0.54;55.54;102147.41;4991955;28;20038;-68
2022/03/09 06:23:50;;;;;;;19.57;10.97;;;;;;;0.53;55.63;102137.88;4964205;28;20670;-68
2022/03/09 06:26:16;;;;;;;22.50;11.63;;;;;;;0.55;55.55;102135.19;4978169;28;20035;-68
2022/03/09 06:28:41;;;;;;;20.70;11.23;;;;;;;0.61;55.73;102142.75;4978883;28;20030;-68
2022/03/09 06:31:07;;;;;;;22.60;11.50;;;;;;;0.65;55.78;102149.53;4982800;28;20042;-67
2022/03/09 06:33:32;;;;;;;18.17;11.07;;;;;;;0.71;55.71;102148.38;4986569;28;20022;-67
2022/03/09 06:35:57;;;;;;;20.50;11.20;;;;;;;0.75;55.87;102142.91;4978778;28;20406;-67
2022/03/09 06:38:23;;;;;;;20.53;12.00;;;;;;;0.76;55.93;102152.47;4977775;28;20482;-67
2022/03/09 06:40:48;;;;;;;19.40;11.30;;;;;;;0.81;55.79;102155.69;4982120;28;20039;-67
2022/03/09 06:43:13;;;;;;;23.00;11.77;;;;;;;0.88;56.08;102158.88;4978823;28;20076;-68
2022/03/09 06:45:39;;;;;;;22.30;11.57;;;;;;;0.95;56.02;102162.03;4979586;28;20557;-67
2022/03/09 06:48:04;;;;;;;18.93;11.17;;;;;;;1.03;56.05;102167.72;4984095;28;20058;-67
2022/03/09 06:50:30;;;;;;;19.67;11.13;;;;;;;1.11;56.04;102168.16;4985591;28;20117;-67
2022/03/09 06:52:55;;;;;;;20.10;11.73;;;;;;;1.15;55.96;102170.53;4984586;28;20053;-67
2022/03/09 06:55:21;;;;;;;18.00;10.97;;;;;;;1.22;55.89;102174.56;4989497;28;20038;-67
2022/03/09 06:57:46;;;;;;;24.27;11.07;;;;;;;1.28;55.84;102172.56;4975727;28;20525;-67
2022/03/09 07:00:14;;;;;;;19.60;11.13;;;;;;;1.38;55.94;102177.22;4980298;28;20066;-67
2022/03/09 07:02:40;;;;;;;21.40;12.00;;;;;;;1.46;55.72;102188.19;4961402;28;20046;-67
2022/03/09 07:05:06;;;;;;;19.20;11.10;;;;;;;1.52;55.60;102181.78;4987384;28;20101;-67
2022/03/09 07:07:32;;;;;;;18.70;11.20;;;;;;;1.59;55.41;102185.75;4979556;28;20114;-67
2022/03/09 07:09:58;;;;;;;20.07;11.07;;;;;;;1.59;55.24;102190.16;4975265;28;20482;-67
2022/03/09 07:12:23;;;;;;;18.83;11.23;;;;;;;1.65;55.22;102188.06;4982630;28;20030;-67
2022/03/09 07:14:48;;;;;;;19.77;10.60;;;;;;;1.70;55.05;102183.41;4975524;28;20072;-67
2022/03/09 07:17:14;;;;;;;21.73;11.10;;;;;;;1.79;54.94;102192.59;4975665;28;20039;-67
2022/03/09 07:19:39;;;;;;;18.93;10.90;;;;;;;1.90;54.92;102197.25;4986077;28;20803;-67
2022/03/09 07:22:05;;;;;;;18.83;11.30;;;;;;;1.98;54.74;102195.06;4973054;28;20026;-67
2022/03/09 07:24:30;;;;;;;23.07;11.57;;;;;;;2.01;54.58;102200.13;4985474;28;20022;-66
2022/03/09 07:26:56;;;;;;;18.20;11.13;;;;;;;2.05;54.44;102185.97;4980149;28;20038;-67
2022/03/09 07:29:22;;;;;;;16.93;10.80;;;;;;;2.09;54.23;102188.31;4976746;28;20033;-66
2022/03/09 07:31:47;;;;;;;18.00;10.87;;;;;;;2.15;54.17;102190.59;4975554;28;20490;-67
2022/03/09 07:34:13;;;;;;;19.10;11.23;;;;;;;2.24;54.19;102184.00;4981140;28;20026;-67
2022/03/09 07:36:38;;;;;;;17.83;11.80;;;;;;;2.32;53.71;102191.47;4981023;28;20065;-67
2022/03/09 07:39:03;;;;;;;21.60;11.40;;;;;;;2.41;54.10;102191.81;4973917;28;20014;-67
2022/03/09 07:41:29;;;;;;;18.60;11.37;;;;;;;2.48;53.91;102187.91;4958035;28;20034;-67
2022/03/09 07:43:54;;;;;;;23.77;11.70;;;;;;;2.51;53.74;102181.66;4982042;28;20096;-67
2022/03/09 07:46:19;;;;;;;24.23;11.43;;;;;;;2.67;53.79;102173.78;4986483;28;20489;-67
2022/03/09 07:48:45;;;;;;;21.80;11.60;;;;;;;2.70;53.53;102178.84;4973575;28;20026;-67
2022/03/09 07:51:10;;;;;;;20.43;11.30;;;;;;;2.75;53.66;102169.78;4975690;28;20079;-67
2022/03/09 07:53:35;;;;;;;19.03;11.53;;;;;;;2.90;54.04;102181.19;4981136;28;20477;-67
2022/03/09 07:56:01;;;;;;;23.53;11.50;;;;;;;2.97;53.62;102179.06;4972320;28;20482;-66
2022/03/09 07:58:26;;;;;;;20.93;10.63;;;;;;;3.03;53.49;102187.41;4956651;28;20050;-67
2022/03/09 08:00:51;;;;;;;21.80;11.50;;;;;;;3.11;53.54;102185.16;4972106;28;20478;-67
2022/03/09 08:03:16;;;;;;;24.40;12.17;;;;;;;3.21;53.63;102185.50;4982889;28;20026;-67
2022/03/09 08:05:44;;;;;;;21.30;11.67;;;;;;;3.23;53.46;102199.38;4979061;28;20383;-67
2022/03/09 08:08:09;;;;;;;20.03;11.50;;;;;;;3.27;53.48;102193.00;4969685;28;20043;-67
2022/03/09 08:10:35;;;;;;;20.57;10.93;;;;;;;3.28;53.16;102185.97;4981652;28;20030;-67
2022/03/09 08:13:00;;;;;;;19.10;11.27;;;;;;;3.37;52.93;102209.91;4963274;28;20169;-67
2022/03/09 08:15:25;;;;;;;23.17;11.77;;;;;;;3.36;53.17;102208.22;4961066;28;20027;-67
2022/03/09 08:17:51;;;;;;;21.60;11.67;;;;;;;3.43;53.07;102198.19;4987187;28;20050;-67
2022/03/09 08:20:16;;;;;;;21.60;11.63;;;;;;;3.58;53.22;102201.69;4981741;28;20405;-67
2022/03/09 08:22:42;;;;;;;20.03;11.13;;;;;;;3.62;52.87;102208.44;4956539;28;20073;-67
2022/03/09 08:25:08;;;;;;;20.77;12.03;;;;;;;3.76;53.06;102211.09;4980454;28;20029;-67
2022/03/09 08:27:33;;;;;;;24.70;12.40;;;;;;;3.94;53.04;102215.22;4980244;28;20390;-66
2022/03/09 08:29:59;;;;;;;21.77;11.83;;;;;;;4.00;52.96;102209.59;4985450;28;20034;-66
2022/03/09 08:32:24;;;;;;;22.47;11.83;;;;;;;4.10;52.74;102209.88;4959354;28;20089;-66
2022/03/09 08:34:49;;;;;;;21.17;12.20;;;;;;;4.21;52.57;102217.09;4987007;28;20639;-67
2022/03/09 08:37:15;;;;;;;23.47;12.00;;;;;;;4.29;52.38;102210.41;4964090;28;20030;-67
2022/03/09 08:39:43;;;;;;;22.20;11.23;;;;;;;4.34;52.12;102212.75;4983426;28;20555;-67
2022/03/09 08:42:09;;;;;;;24.77;11.97;;;;;;;4.37;51.64;102217.84;4980878;28;20498;-67
2022/03/09 08:44:34;;;;;;;19.40;11.77;;;;;;;4.51;52.06;102207.25;4981388;28;20037;-67
2022/03/09 08:46:59;;;;;;;19.07;11.80;;;;;;;4.61;51.94;102221.50;4981263;28;20056;-67
2022/03/09 08:49:25;;;;;;;24.27;12.00;;;;;;;4.71;51.89;102218.31;4985510;28;20034;-66
2022/03/09 08:51:50;;;;;;;20.63;12.07;;;;;;;4.82;51.52;102210.56;4980697;28;20034;-67
2022/03/09 08:54:15;;;;;;;21.77;12.17;;;;;;;4.96;51.10;102214.00;4980877;28;20536;-67
2022/03/09 08:56:40;;;;;;;24.17;12.33;;;;;;;5.03;51.05;102214.41;4978788;28;20042;-67
2022/03/09 08:59:06;;;;;;;21.97;12.27;;;;;;;5.08;50.72;102216.75;4982672;28;20497;-67
2022/03/09 09:01:31;;;;;;;22.03;12.77;;;;;;;5.09;50.49;102206.13;4977460;28;20035;-67
2022/03/09 09:03:56;;;;;;;20.97;12.60;;;;;;;5.20;50.54;102214.16;4985003;28;20401;-67
2022/03/09 09:06:22;;;;;;;19.27;12.43;;;;;;;5.34;50.59;102212.38;4976963;28;20034;-67
2022/03/09 09:08:47;;;;;;;22.23;13.23;;;;;;;5.37;50.10;102214.81;4989343;28;20042;-67
2022/03/09 09:11:12;;;;;;;19.90;12.70;;;;;;;5.41;49.92;102205.75;4986841;28;20034;-67
2022/03/09 09:13:37;;;;;;;24.80;12.17;;;;;;;5.53;49.47;102200.50;4983810;28;20034;-67
2022/03/09 09:16:03;;;;;;;21.07;12.57;;;;;;;5.58;49.30;102202.81;4984383;28;20080;-67
2022/03/09 09:18:28;;;;;;;21.33;12.13;;;;;;;5.59;48.68;102207.16;4988987;28;20041;-67
2022/03/09 09:20:54;;;;;;;21.73;12.03;;;;;;;5.66;48.74;102208.41;4985509;28;20089;-67
2022/03/09 09:23:20;;;;;;;22.80;12.20;;;;;;;5.77;48.88;102205.88;4984150;28;20787;-67
2022/03/09 09:25:46;;;;;;;21.43;12.50;;;;;;;5.93;49.15;102200.41;4989091;28;20105;-67
2022/03/09 09:28:12;;;;;;;24.20;12.37;;;;;;;6.01;48.78;102210.44;4983802;28;20105;-67
2022/03/09 09:30:37;;;;;;;24.43;12.53;;;;;;;6.08;48.35;102201.16;4986536;28;20117;-67
2022/03/09 09:33:03;;;;;;;26.17;12.73;;;;;;;6.20;48.50;102205.56;4984992;28;20034;-67
2022/03/09 09:35:28;;;;;;;20.20;12.33;;;;;;;6.37;48.20;102213.13;4982870;28;20097;-67
2022/03/09 09:37:54;;;;;;;26.93;12.97;;;;;;;6.56;48.30;102201.22;4967709;28;20817;-67
2022/03/09 09:40:19;;;;;;;23.87;12.40;;;;;;;6.65;48.18;102196.13;4967792;28;20073;-67
2022/03/09 09:42:45;;;;;;;20.50;12.23;;;;;;;6.74;47.93;102205.19;4975115;28;20043;-67
2022/03/09 09:45:10;;;;;;;23.60;12.67;;;;;;;6.87;47.86;102200.66;4976021;28;20130;-67
2022/03/09 09:47:36;;;;;;;21.90;12.13;;;;;;;7.03;47.83;102203.03;4968956;28;20027;-67
2022/03/09 09:50:03;;;;;;;21.97;12.50;;;;;;;7.19;47.25;102197.44;4984771;28;20036;-67
2022/03/09 09:52:32;;;;;;;22.50;12.80;;;;;;;7.34;47.28;102202.41;4985295;28;20478;-67
2022/03/09 09:54:59;;;;;;;20.73;13.05;;;;;;;7.36;46.67;102204.94;4983908;28;20034;-67
2022/03/09 09:57:27;;;;;;;22.93;13.70;;;;;;;7.42;46.26;102201.81;4966549;28;20629;-67
2022/03/09 09:59:52;;;;;;;21.77;13.50;;;;;;;7.43;46.09;102200.88;4982206;28;20485;-67
2022/03/09 10:02:18;;;;;;;24.20;13.17;;;;;;;7.55;46.16;102207.03;4986464;28;20030;-67
2022/03/09 10:04:45;;;;;;;25.70;12.83;;;;;;;7.78;46.37;102209.56;4971430;28;20034;-67
2022/03/09 10:07:10;;;;;;;22.17;12.88;;;;;;;7.93;46.25;102209.34;4976703;28;20077;-67
2022/03/09 10:09:40;;;;;;;21.75;12.65;;;;;;;8.02;45.73;102217.41;4976873;28;20027;-67
2022/03/09 10:12:07;;;;;;;27.13;14.38;;;;;;;8.23;45.57;102209.59;4964277;28;20450;-67
2022/03/09 10:14:53;;;;;;;24.10;13.10;;;;;;;8.43;45.44;102212.50;4981531;28;20022;-67
2022/03/09 10:17:20;;;;;;;25.00;13.88;;;;;;;8.55;45.13;102204.38;4977106;28;20030;-67
2022/03/09 10:19:51;;;;;;;23.85;13.50;;;;;;;8.58;44.86;102198.84;4983249;28;20497;-67
2022/03/09 10:22:25;;;;;;;21.75;13.98;;;;;;;8.82;45.00;102196.00;4965753;28;20073;-67
2022/03/09 10:24:51;;;;;;;26.15;13.98;;;;;;;8.99;44.91;102191.97;4978639;28;20030;-67
2022/03/09 10:27:34;;;;;;;28.55;15.07;;;;;;;9.20;44.62;102184.88;4973988;28;20029;-67
2022/03/09 10:30:01;;;;;;;29.35;14.95;;;;;;;9.36;44.58;102179.13;4968454;28;20034;-67
2022/03/09 10:32:49;;;;;;;27.38;14.70;;;;;;;9.41;44.22;102178.75;4982274;28;20030;-67
2022/03/09 10:35:17;;;;;;;25.65;14.25;;;;;;;9.48;44.09;102183.38;4962929;28;20370;-67
2022/03/09 10:37:46;;;;;;;32.60;15.73;;;;;;;9.45;43.88;102180.16;4978412;28;20166;-67
2022/03/09 10:40:20;;;;;;;27.57;15.53;;;;;;;9.41;43.66;102176.94;4984910;28;20597;-67
2022/03/09 10:42:46;;;;;;;34.25;15.68;;;;;;;9.51;43.73;102175.16;4982918;28;20041;-67
2022/03/09 10:45:14;;;;;;;29.33;15.73;;;;;;;9.50;43.41;102185.91;4988147;28;20030;-67
2022/03/09 10:47:42;;;;;;;26.05;15.15;;;;;;;9.49;43.25;102182.41;4977160;28;20533;-67
2022/03/09 10:50:11;;;;;;;26.00;15.10;;;;;;;9.45;43.20;102188.94;4982706;28;20027;-67
2022/03/09 10:52:56;;;;;;;27.23;14.93;;;;;;;9.55;43.61;102189.03;4976150;28;20405;-67
2022/03/09 10:55:33;;;;;;;26.30;15.27;;;;;;;9.56;43.80;102186.25;4982674;28;20085;-67
2022/03/09 10:58:19;;;;;;;25.92;14.50;;;;;;;9.65;43.70;102184.59;4986428;28;20462;-67
2022/03/09 11:00:45;;;;;;;27.40;15.65;;;;;;;9.69;43.53;102179.88;4983124;28;20430;-67
2022/03/09 11:03:16;;;;;;;26.98;15.82;;;;;;;9.70;43.80;102190.34;4986691;28;20097;-67
2022/03/09 11:05:55;;;;;;;29.65;15.57;;;;;;;9.68;43.35;102189.66;4985750;28;20030;-67
2022/03/09 11:08:48;;;;;;;31.00;16.05;;;;;;;9.68;43.52;102188.81;4982886;28;20687;-67
2022/03/09 11:11:14;;;;;;;27.10;15.27;;;;;;;9.68;43.21;102184.34;4968284;28;20109;-67
2022/03/09 11:13:40;;;;;;;29.67;16.50;;;;;;;9.78;42.93;102176.41;4987275;28;20512;-67
2022/03/09 11:16:07;;;;;;;28.25;16.65;;;;;;;9.80;42.70;102180.63;4982353;28;20123;-67